Weather observations for the past three days for
Pitt-Greenville Airport
Imperial (Metric)
Date Time (edt) Wind (mph) Vis. (mi.) Weather Sky Cond. Temperature (ºF) Relative Humidity Wind Chill (°F) Heat Index (°F) Pressure Precipitation (in)
Air Dwpt 6 hour altimeter (in) sea level (mb) 1 hr 3 hr 6 hr
Max. Min.
04 07:55 SW 9 10.00 Fair CLR 55.4 48.2 55.6 45 77% 30.06 0.0
04 07:35 SW 7 10.00 Fair CLR 53.6 48.2 82% 30.07 0.0
04 07:15 S 5 10.00 Fair CLR 51.8 46.4 82% 30.07 0.0
04 06:55 S 5 10.00 Fair CLR 48.2 46.4 94% 47 30.06 0.0
04 06:35 SW 3 10.00 Fair CLR 46.4 44.6 93% 30.06 0.0
04 06:15 SW 3 10.00 Fair CLR 46.4 44.6 93% 30.06 0.0
04 05:55 S 2 10.00 Fair CLR 46.4 44.6 93% 30.06 0.0
04 05:15 Vrbl 2 10.00 Fair CLR 46.4 42.8 87% 30.07 0.0
04 04:55 E 2 10.00 Fair CLR 46.4 42.8 87% 30.07 0.0
04 04:35 SE 2 10.00 Fair CLR 46.4 42.8 87% 30.07 0.0
04 04:15 S 1 10.00 Fair CLR 48.2 44.6 87% 30.06 0.0
04 03:55 S 2 10.00 Fair CLR 48.2 44.6 87% 30.06 0.0
04 03:35 SW 2 10.00 Fair CLR 48.2 42.8 82% 30.07 0.0
04 03:15 SW 3 10.00 Fair CLR 46.4 42.8 87% 30.07 0.0
04 02:55 S 5 10.00 Fair CLR 46.4 42.8 87% 45 30.06 0.0
04 02:35 Calm 10.00 Fair CLR 46.4 42.8 87% 30.07 0.0
04 02:07 S 1 10.00 Fair CLR 44.6 42.8 93% 30.07 0.0
04 01:55 Calm 10.00 Fair CLR 46.4 41 60.8 44.8 82% 30.06 0.0
04 01:35 E 1 10.00 Fair CLR 46.4 41 82% 30.07 0.0
04 01:15 SE 1 10.00 Fair CLR 46.4 41 82% 30.07 0.0
04 00:55 S 5 10.00 Fair CLR 46.4 41 82% 45 30.08 0.0
04 00:35 S 3 10.00 Fair CLR 46.4 44.6 93% 30.08 0.0
04 00:15 S 2 10.00 Fair CLR 44.6 44.6 100% 30.07 0.0
03 23:55 SW 2 10.00 Fair CLR 44.6 44.6 100% 30.07 0.0
03 23:35 SW 2 10.00 Fair CLR 46.4 44.6 93% 30.07 0.0
03 23:15 S 2 10.00 Fair CLR 46.4 44.6 93% 30.07 0.0
03 22:55 S 1 10.00 Fair CLR 46.4 44.6 93% 30.07 0.0
03 22:35 S 1 10.00 Fair CLR 46.4 44.6 93% 30.07 0.0
03 22:15 SW 2 10.00 Fair CLR 48.2 44.6 87% 30.07 0.0
03 21:55 SW 1 10.00 Fair CLR 48.2 44.6 87% 30.06 0.0
03 21:35 S 2 10.00 Fair CLR 48.2 44.6 87% 30.06 0.0
03 21:15 SW 2 10.00 Fair CLR 50 42.8 76% 30.05 0.0
03 20:55 SW 2 10.00 Fair CLR 50 41 71% 30.04 0.0
03 20:35 SW 3 10.00 Fair CLR 51.8 41 67% 30.03 0.0
03 20:15 E 1 10.00 Fair CLR 53.6 39.2 58% 30.03 0.0
03 19:55 W 2 10.00 Fair CLR 55.4 37.4 66.2 60.6 51% 30.02 0.0
03 19:35 W 2 10.00 Fair CLR 62.6 33.8 34% 30.02 0.0
03 19:15 Vrbl 3 10.00 Fair CLR 62.6 33.8 34% 30.02 0.0
03 18:55 NW 5 10.00 Fair CLR 64.4 30.2 28% 30.01 0.0
03 18:35 W 5 10.00 Fair CLR 64.4 32 30% 30.01 0.0
03 18:15 Vrbl 6 10.00 Fair CLR 64.4 32 30% 30.01 0.0
03 17:55 Vrbl 6 10.00 Fair CLR 64.4 32 30% 30.01 0.0
03 17:35 NW 7 10.00 Fair CLR 66.2 32 28% 30.01 0.0
03 17:15 NW 7 10.00 Fair CLR 64.4 32 30% 30.01 0.0
03 16:55 Vrbl 5 10.00 Fair CLR 66.2 32 28% 30.01 0.0
03 16:35 Vrbl 6 10.00 Fair CLR 64.4 32 30% 30.01 0.0
03 16:15 NW 8 10.00 Fair CLR 66.2 33.8 30% 30.01 0.0
03 15:55 Vrbl 5 10.00 Fair CLR 64.4 32 30% 30.02 0.0
03 15:35 NW 8 10.00 Fair CLR 64.4 32 30% 30.03 0.0
03 15:15 W 7 10.00 Fair CLR 64.4 32 30% 30.04 0.0
03 14:55 W 12 10.00 Fair CLR 62.6 32 32% 30.04 0.0
03 14:35 W 9 10.00 Fair CLR 64.4 33.8 32% 30.05 0.0
03 14:15 W 9 G 17 10.00 Fair CLR 62.6 32 32% 30.06 0.0
03 13:55 NW 8 10.00 Fair CLR 62.6 33.8 63.1 47.3 34% 30.06 0.0
03 13:35 NW 10 10.00 Fair CLR 60.8 33.8 36% 30.06 0.0
03 13:15 W 8 10.00 Fair CLR 60.8 33.8 36% 30.07 0.0
03 12:55 W 7 10.00 Fair CLR 60.8 35.6 39% 30.07 0.0
03 12:35 NW 10 10.00 Fair CLR 60.8 33.8 36% 30.07 0.0
03 12:15 W 7 10.00 Fair CLR 59 32 36% 30.09 0.0
03 11:55 N 10 G 17 10.00 Fair CLR 59 32 36% 30.09 0.0
03 11:35 NW 12 G 17 10.00 Fair CLR 59 32 36% 30.09 0.0
03 11:15 Vrbl 7 10.00 Fair CLR 57.2 33.8 41% 30.09 0.0
03 10:55 NW 9 10.00 Fair CLR 57.2 35.6 44% 30.09 0.0
03 10:35 N 8 10.00 Fair CLR 57.2 39.2 51% 30.09 0.0
03 10:15 NW 9 10.00 Fair CLR 55.4 39.2 55% 30.09 0.0
03 09:55 NW 7 10.00 Fair CLR 55.4 41 59% 30.09 0.0
03 09:35 N 9 10.00 Fair CLR 53.6 39.2 58% 30.09 0.0
03 09:15 N 7 10.00 Fair CLR 53.6 39.2 58% 30.09 0.0
03 08:35 NW 8 10.00 Fair CLR 50 39.2 67% 47 30.09 0.0
03 08:15 NW 7 10.00 Fair CLR 48.2 39.2 71% 46 30.08 0.0
03 07:55 NW 7 10.00 Fair CLR 48.2 39.2 49.6 44.2 71% 46 30.06 0.0
03 07:35 NW 7 10.00 Fair CLR 46.4 39.2 76% 43 30.05 0.0
03 07:15 NW 7 10.00 Fair CLR 44.6 39.2 81% 41 30.04 0.0
03 06:55 NW 7 10.00 Fair CLR 44.6 39.2 81% 41 30.03 0.0
03 06:35 NW 6 10.00 Fair CLR 44.6 39.2 81% 42 30.02 0.0
03 06:15 NW 7 10.00 Fair CLR 44.6 39.2 81% 41 30 0.0
03 05:55 Vrbl 6 10.00 Fair CLR 44.6 39.2 81% 42 29.99 0.0
03 05:35 Vrbl 6 10.00 Fair CLR 44.6 41 87% 42 29.99 0.0
03 05:15 Vrbl 5 10.00 Fair CLR 46.4 41 82% 45 29.98 0.0
03 04:55 W 3 10.00 Fair CLR 46.4 42.8 87% 29.98 0.0 0.01
03 04:35 W 5 10.00 Fair CLR 46.4 42.8 87% 45 29.97 0.0
03 04:15 W 5 10.00 Fair CLR 48.2 44.6 87% 47 29.96 0.0
03 03:55 W 5 10.00 Fair CLR 48.2 46.4 94% 47 29.96 0.0
03 03:35 W 3 8.00 Fair CLR 48.2 46.4 94% 29.96 0.0
03 03:15 SW 3 5.00 Fog/Mist CLR 48.2 48.2 100% 29.95 0.0
03 02:55 SW 2 0.75 Fog/Mist SCT055 46.4 46.4 100% 29.94 0.0
03 02:35 Vrbl 2 9.00 A Few Clouds FEW055 48.2 48.2 100% 29.94 0.0
03 02:15 W 3 10.00 Fair CLR 50 48.2 94% 29.94 0.0
03 01:55 Vrbl 2 10.00 Fair CLR 50 48.2 51.8 49.5 94% 29.94 0.0
03 01:35 W 3 10.00 Fair CLR 50 48.2 94% 29.94 0.0
03 01:15 W 2 10.00 Fair CLR 50 50 100% 29.94 0.0
03 00:55 NW 5 10.00 Fair CLR 50 50 100% 49 29.94 0.0
03 00:35 W 2 10.00 Fair CLR 50 50 100% 29.94 0.0
03 00:15 NW 3 10.00 Fair CLR 51.8 50 94% 29.93 0.0
02 23:55 NW 3 10.00 Fair CLR 51.8 50 94% 29.93 0.0
02 23:35 W 3 10.00 A Few Clouds FEW120 51.8 50 94% 29.93 0.0
02 23:15 NW 5 10.00 Fair CLR 51.8 50 94% 29.93 0.0
02 22:55 W 3 10.00 Fair CLR 51.8 50 94% 29.93 0.0
02 22:35 NW 2 7.00 Partly Cloudy FEW090 SCT120 51.8 50 94% 29.92 0.0
02 22:15 W 2 10.00 Overcast BKN090 OVC120 51.8 50 94% 29.92 0.0
02 21:55 W 2 10.00 Overcast BKN080 OVC110 51.8 50 94% 29.92 0.0
02 21:35 NW 2 10.00 Overcast BKN070 OVC110 51.8 50 94% 29.91 0.0
02 21:15 W 1 10.00 Mostly Cloudy SCT070 BKN110 51.8 50 94% 29.91 0.0
02 20:55 W 2 10.00 Mostly Cloudy SCT070 BKN110 51.8 50 94% 29.9 0.0
02 20:35 NW 2 10.00 Overcast OVC110 51.8 50 94% 29.89 0.0
02 20:15 Vrbl 1 10.00 Overcast OVC110 51.8 50 94% 29.89 0.0
02 19:35 NW 3 10.00 Light Rain FEW075 OVC085 51.8 50 94% 29.88 0.0
02 19:15 NW 3 10.00 Overcast FEW032 SCT075 OVC085 51.8 50 94% 29.89 0.0
02 18:55 N 5 10.00 Light Rain BKN031 BKN036 OVC080 51.8 50 94% 29.88 0.0
02 18:35 N 3 10.00 Light Rain FEW009 BKN027 OVC036 51.8 50 94% 29.88 0.0
02 18:15 N 8 10.00 Light Rain FEW010 FEW014 OVC023 51.8 50 94% 29.88 0.0
02 17:35 N 7 10.00 Overcast OVC021 51.8 50 94% 29.87 0.0
02 17:15 N 6 10.00 Overcast OVC017 51.8 50 94% 29.86 0.0
02 16:35 N 14 10.00 Overcast OVC010 51.8 48.2 88% 29.86 0.0
02 16:15 N 9 10.00 Light Rain OVC007 51.8 50 94% 29.87 0.0
02 15:56 N 8 10.00 Light Rain OVC007 51.8 50 94% 29.87 0.0 0.02
02 15:35 N 7 10.00 Light Rain BKN009 OVC012 53.6 51.8 94% 29.87 0.0
02 15:15 NE 9 9.00 Light Rain OVC012 53.6 50 88% 29.87 0.0
02 14:35 N 13 10.00 Light Rain OVC008 53.6 50 88% 29.89 0.0
02 14:15 N 13 10.00 Light Rain OVC008 53.6 51.8 94% 29.89 0.0
02 13:55 N 10 10.00 Light Rain OVC010 53.6 51.8 56.1 53.4 94% 29.89 0.0 0.05
02 13:35 N 12 8.00 Light Rain BKN010 OVC013 53.6 51.8 94% 29.88 0.0
02 13:15 N 12 7.00 Light Rain BKN014 BKN023 OVC065 53.6 51.8 94% 29.91 0.0
02 12:55 N 9 6.00 Light Rain Fog/Mist FEW013 FEW023 OVC055 53.6 51.8 94% 29.92 0.0 0.07
02 12:35 N 12 6.00 Light Rain Fog/Mist FEW013 BKN055 OVC070 53.6 51.8 94% 29.93 0.0
02 12:15 N 10 10.00 Light Rain BKN012 BKN018 OVC060 55.4 51.8 88% 29.93 0.0
02 11:55 N 13 10.00 Light Rain FEW007 BKN010 OVC060 55.4 51.8 88% 29.91 0.0 0.04
02 11:35 N 14 9.00 Light Rain BKN010 BKN015 OVC075 55.4 51.8 88% 29.91 0.0
02 11:15 N 13 6.00 Light Rain Fog/Mist SCT011 BKN033 OVC085 55.4 51.8 88% 29.92 0.0
02 10:55 N 8 9.00 Light Rain BKN012 OVC032 55.4 53.6 94% 29.92 0.0 0.02
02 10:36 N 9 10.00 Light Rain OVC012 55.4 51.8 88% 29.91 0.0
02 10:15 N 12 10.00 Light Rain OVC010 55.4 51.8 88% 29.9 0.0
02 09:55 N 9 10.00 Light Rain BKN010 BKN045 OVC080 55.4 51.8 88% 29.89 0.0
02 09:35 N 8 10.00 Overcast SCT010 SCT060 OVC080 55.4 51.8 88% 29.89 0.0
02 08:55 N 8 10.00 Overcast OVC070 55.4 51.8 88% 29.88 0.0
02 08:35 N 8 10.00 Light Rain OVC080 53.6 51.8 94% 29.88 0.0
02 08:15 N 5 10.00 Overcast OVC080 53.6 51.8 94% 29.89 0.0
02 07:55 N 6 10.00 Light Rain SCT050 OVC080 53.6 51.8 54.7 53.1 94% 29.89 0.0 0.02
02 07:36 N 5 10.00 Light Rain BKN050 OVC070 53.6 51.8 94% 29.89 0.0
02 07:16 N 2 7.00 Light Rain SCT048 BKN070 OVC080 53.6 53.6 100% 29.89 0.0
02 06:55 W 1 8.00 Light Rain OVC080 53.6 53.6 100% 29.89 0.0 0.03
02 06:35 SW 2 8.00 Light Rain FEW039 SCT049 OVC080 53.6 51.8 94% 29.89 0.0
02 06:16 S 2 10.00 Light Rain BKN035 BKN050 OVC080 53.6 51.8 94% 29.88 0.0
02 05:55 NW 3 10.00 Light Rain FEW028 BKN033 OVC045 55.4 51.8 88% 29.88 0.0
02 05:35 N 3 10.00 Overcast BKN037 BKN050 OVC100 53.6 51.8 94% 29.88 0.0
02 05:15 N 3 10.00 Mostly Cloudy FEW030 BKN037 BKN110 53.6 51.8 94% 29.88 0.0
02 04:55 NW 5 10.00 Partly Cloudy FEW031 SCT040 53.6 51.8 94% 29.87 0.0
02 04:35 W 1 10.00 Fair CLR 53.6 51.8 94% 29.87 0.0
02 04:15 N 3 10.00 Partly Cloudy FEW014 SCT030 53.6 51.8 94% 29.87 0.0
02 03:55 Vrbl 1 10.00 A Few Clouds FEW014 FEW030 53.6 51.8 94% 29.87 0.0
02 03:35 N 3 10.00 Fair CLR 53.6 51.8 94% 29.86 0.0
02 03:15 N 6 10.00 Partly Cloudy SCT030 SCT034 SCT041 53.6 51.8 94% 29.87 0.0
02 02:55 N 2 10.00 Mostly Cloudy SCT023 BKN033 BKN041 53.6 51.8 94% 29.87 0.0
02 02:35 N 1 10.00 Overcast FEW027 BKN037 OVC046 55.4 51.8 88% 29.88 0.0
02 02:16 NE 2 10.00 Mostly Cloudy BKN035 BKN042 55.4 51.8 88% 29.88 0.0
02 01:55 N 2 10.00 Partly Cloudy FEW038 FEW045 SCT060 53.6 51.8 56.5 53.8 94% 29.88 0.0
02 01:35 N 3 10.00 Partly Cloudy SCT038 SCT045 SCT060 53.6 51.8 94% 29.89 0.0
02 01:15 NE 2 10.00 Fair CLR 55.4 51.8 88% 29.9 0.0
02 00:55 W 1 10.00 Fair CLR 55.4 51.8 88% 29.91 0.0
02 00:35 Vrbl 1 10.00 Fair CLR 55.4 51.8 88% 29.9 0.0
02 00:15 E 2 10.00 A Few Clouds FEW047 55.4 51.8 88% 29.9 0.0
01 23:55 E 3 10.00 A Few Clouds FEW049 55.4 51.8 88% 29.91 0.0
01 23:35 E 2 10.00 A Few Clouds FEW050 55.4 51.8 88% 29.92 0.0
01 23:15 E 2 10.00 Partly Cloudy SCT050 55.4 51.8 88% 29.93 0.0
01 22:55 E 1 10.00 Mostly Cloudy BKN050 BKN070 55.4 51.8 88% 29.93 0.0
01 22:35 SE 3 10.00 A Few Clouds FEW050 55.4 51.8 88% 29.93 0.0
01 22:15 NE 2 10.00 Mostly Cloudy SCT026 BKN050 BKN065 55.4 51.8 88% 29.93 0.0
01 21:55 E 2 10.00 Overcast OVC026 55.4 51.8 88% 29.93 0.0
01 21:35 SE 3 10.00 Overcast BKN028 OVC055 55.4 51.8 88% 29.93 0.0
01 21:15 E 3 10.00 Overcast BKN028 BKN055 OVC065 55.4 51.8 88% 29.93 0.0
01 20:55 E 3 10.00 Overcast OVC028 57.2 51.8 82% 29.92 0.0
01 20:35 Vrbl 2 10.00 Overcast OVC028 57.2 51.8 82% 29.92 0.0
01 20:15 Vrbl 2 10.00 Overcast OVC028 55.4 51.8 88% 29.93 0.0
01 19:55 SE 5 10.00 Overcast BKN028 OVC034 57.2 51.8 59.5 56.3 82% 29.93 0.0
01 19:35 E 6 10.00 Light Drizzle BKN033 BKN041 OVC055 57.2 51.8 82% 29.92 0.0
01 19:15 E 3 9.00 Light Drizzle BKN033 BKN041 OVC055 57.2 51.8 82% 29.93 0.0
01 18:56 NW 3 10.00 Overcast OVC033 57.2 50 77% 29.94 0.0
01 18:35 E 3 10.00 Overcast OVC033 57.2 50 77% 29.92 0.0
01 18:15 E 3 10.00 Overcast OVC035 57.2 48.2 72% 29.93 0.0
01 17:55 SE 3 10.00 Overcast BKN037 OVC060 57.2 48.2 72% 29.93 0.0
01 17:35 SE 5 10.00 Overcast OVC065 57.2 48.2 72% 29.93 0.0
01 17:15 E 5 10.00 Overcast BKN060 OVC100 57.2 48.2 72% 29.93 0.0
01 16:55 SE 6 10.00 Overcast SCT060 SCT080 OVC110 59 48.2 68% 29.93 0.0
01 16:35 E 6 10.00 Overcast SCT060 BKN075 OVC080 57.2 48.2 72% 29.93 0.0
01 16:15 SE 2 10.00 Overcast BKN060 BKN075 OVC090 57.2 50 77% 29.95 0.0
01 15:55 Vrbl 2 10.00 Light Rain BKN065 BKN075 OVC090 57.2 50 77% 29.96 0.0
01 15:35 S 3 10.00 Overcast BKN060 BKN075 OVC090 57.2 46.4 67% 29.97 0.0
01 15:16 S 5 10.00 Light Rain BKN060 OVC075 59 46.4 63% 29.97 0.0
01 14:55 E 3 10.00 Overcast FEW055 BKN070 OVC090 59 44.6 59% 29.97 0.0
01 14:35 SW 3 10.00 Overcast FEW050 BKN060 OVC085 59 46.4 63% 29.98 0.0
01 14:15 Vrbl 2 10.00 Overcast OVC060 59 44.6 59% 29.99 0.0
01 13:55 Vrbl 3 10.00 Overcast OVC060 59 44.6 59.5 51.1 59% 29.98 0.0
01 13:35 Vrbl 5 10.00 Overcast OVC060 59 44.6 59% 29.99 0.0
01 13:15 SE 3 10.00 Overcast OVC070 57.2 44.6 63% 29.99 0.0
01 12:55 E 5 10.00 Overcast BKN070 OVC085 57.2 44.6 63% 30 0.0
01 12:35 E 6 10.00 Overcast FEW070 OVC085 57.2 44.6 63% 30 0.0
01 12:15 E 8 10.00 Overcast OVC095 57.2 42.8 59% 30 0.0
01 11:55 Vrbl 2 10.00 Light Rain FEW028 OVC085 55.4 44.6 67% 30.01 0.0
01 11:35 E 7 10.00 Light Rain OVC075 55.4 44.6 67% 30.01 0.0
01 11:15 SE 6 10.00 Light Rain OVC075 55.4 42.8 63% 30.03 0.0
01 10:56 Calm 10.00 Light Rain FEW050 FEW065 OVC075 55.4 42.8 63% 30.03 0.0
01 10:35 NE 5 10.00 Overcast FEW050 SCT065 OVC075 55.4 39.2 55% 30.02 0.0
01 10:15 NE 7 10.00 Overcast OVC070 55.4 39.2 55% 30.01 0.0
01 09:55 NE 8 10.00 Overcast OVC070 55.4 39.2 55% 30 0.0
01 09:35 NE 6 10.00 Overcast OVC080 55.4 39.2 55% 30 0.0
01 09:16 NE 7 10.00 Overcast OVC080 55.4 39.2 55% 30 0.0
01 08:55 NE 8 10.00 Overcast OVC080 53.6 39.2 58% 29.99 0.0
01 08:35 NE 7 10.00 Overcast BKN080 OVC110 53.6 41 63% 30 0.0
01 08:15 N 6 10.00 Mostly Cloudy BKN080 BKN110 51.8 41 67% 30 0.0
Date Time (edt) Wind (mph) Vis. (mi.) Weather Sky Cond. Air Dwpt Max. Min. Relative Humidity Wind Chill (°F) Heat Index (°F) altimeter (in) sea level (mb) 1 hr 3 hr 6 hr
6 hour
Temperature (ºF) Pressure Precipitation (in)